sensor_id;sensor_type;location;lat;lon;timestamp;pressure;altitude;pressure_sealevel;temperature;humidity
34237;BME280;20501;45.956;13.632;2022-12-18T00:01:32;101746.06;;;6.08;63.56
34237;BME280;20501;45.956;13.632;2022-12-18T00:04:00;101751.88;;;7.44;58.98
34237;BME280;20501;45.956;13.632;2022-12-18T00:06:28;101764.03;;;7.35;63.71
34237;BME280;20501;45.956;13.632;2022-12-18T00:08:55;101756.31;;;6.33;58.07
34237;BME280;20501;45.956;13.632;2022-12-18T00:11:23;101755.63;;;7.86;59.65
34237;BME280;20501;45.956;13.632;2022-12-18T00:13:49;101749.19;;;8.76;58.98
34237;BME280;20501;45.956;13.632;2022-12-18T00:16:17;101753.34;;;9.09;58.19
34237;BME280;20501;45.956;13.632;2022-12-18T00:18:45;101756.06;;;7.34;56.25
34237;BME280;20501;45.956;13.632;2022-12-18T00:21:12;101771.47;;;7.00;57.87
34237;BME280;20501;45.956;13.632;2022-12-18T00:23:39;101757.78;;;6.88;63.56
34237;BME280;20501;45.956;13.632;2022-12-18T00:26:07;101754.44;;;7.15;55.53
34237;BME280;20501;45.956;13.632;2022-12-18T00:28:33;101767.34;;;8.00;58.10
34237;BME280;20501;45.956;13.632;2022-12-18T00:31:03;101766.81;;;7.64;53.35
34237;BME280;20501;45.956;13.632;2022-12-18T00:33:29;101773.63;;;5.76;59.49
34237;BME280;20501;45.956;13.632;2022-12-18T00:35:54;101780.00;;;6.42;60.92
34237;BME280;20501;45.956;13.632;2022-12-18T00:38:25;101793.72;;;6.20;61.07
34237;BME280;20501;45.956;13.632;2022-12-18T00:40:50;101796.84;;;6.78;62.50
34237;BME280;20501;45.956;13.632;2022-12-18T00:43:15;101787.91;;;6.93;65.13
34237;BME280;20501;45.956;13.632;2022-12-18T00:45:41;101795.84;;;8.18;62.10
34237;BME280;20501;45.956;13.632;2022-12-18T00:48:06;101798.56;;;6.63;60.93
34237;BME280;20501;45.956;13.632;2022-12-18T00:50:32;101783.13;;;6.50;58.93
34237;BME280;20501;45.956;13.632;2022-12-18T00:52:57;101793.28;;;6.61;55.19
34237;BME280;20501;45.956;13.632;2022-12-18T00:55:23;101793.84;;;6.17;57.05
34237;BME280;20501;45.956;13.632;2022-12-18T00:57:51;101790.63;;;8.01;62.13
34237;BME280;20501;45.956;13.632;2022-12-18T01:00:17;101795.28;;;7.68;55.02
34237;BME280;20501;45.956;13.632;2022-12-18T01:02:43;101790.75;;;8.86;59.28
34237;BME280;20501;45.956;13.632;2022-12-18T01:05:11;101797.47;;;10.14;56.43
34237;BME280;20501;45.956;13.632;2022-12-18T01:07:37;101796.53;;;8.51;58.64
34237;BME280;20501;45.956;13.632;2022-12-18T01:10:04;101796.22;;;6.23;63.60
34237;BME280;20501;45.956;13.632;2022-12-18T01:12:30;101805.78;;;6.94;58.75
34237;BME280;20501;45.956;13.632;2022-12-18T01:14:56;101797.22;;;6.04;63.17
34237;BME280;20501;45.956;13.632;2022-12-18T01:17:21;101801.66;;;6.22;65.64
34237;BME280;20501;45.956;13.632;2022-12-18T01:19:47;101789.47;;;6.65;57.79
34237;BME280;20501;45.956;13.632;2022-12-18T01:22:12;101791.56;;;8.00;56.04
34237;BME280;20501;45.956;13.632;2022-12-18T01:24:38;101790.47;;;6.31;65.07
34237;BME280;20501;45.956;13.632;2022-12-18T01:27:03;101791.47;;;5.04;66.99
34237;BME280;20501;45.956;13.632;2022-12-18T01:29:29;101791.22;;;5.10;67.89
34237;BME280;20501;45.956;13.632;2022-12-18T01:31:55;101796.63;;;5.98;68.56
34237;BME280;20501;45.956;13.632;2022-12-18T01:34:22;101796.91;;;8.59;60.88
34237;BME280;20501;45.956;13.632;2022-12-18T01:36:47;101798.84;;;7.83;60.92
34237;BME280;20501;45.956;13.632;2022-12-18T01:39:14;101799.75;;;7.98;61.88
34237;BME280;20501;45.956;13.632;2022-12-18T01:41:41;101808.34;;;8.34;59.25
34237;BME280;20501;45.956;13.632;2022-12-18T01:45:03;101808.56;;;8.60;59.71
34237;BME280;20501;45.956;13.632;2022-12-18T01:47:39;101815.78;;;8.74;59.69
34237;BME280;20501;45.956;13.632;2022-12-18T01:52:45;101810.09;;;6.81;54.81
34237;BME280;20501;45.956;13.632;2022-12-18T01:55:12;101822.94;;;7.70;62.08
34237;BME280;20501;45.956;13.632;2022-12-18T01:57:40;101824.91;;;9.27;58.14
34237;BME280;20501;45.956;13.632;2022-12-18T02:00:10;101829.69;;;8.08;55.67
34237;BME280;20501;45.956;13.632;2022-12-18T02:02:36;101836.91;;;7.77;58.05
34237;BME280;20501;45.956;13.632;2022-12-18T02:05:03;101844.59;;;7.05;61.98
34237;BME280;20501;45.956;13.632;2022-12-18T02:07:56;101849.91;;;8.30;59.86
34237;BME280;20501;45.956;13.632;2022-12-18T02:15:51;101849.28;;;7.01;50.42
34237;BME280;20501;45.956;13.632;2022-12-18T02:18:27;101859.63;;;7.87;59.96
34237;BME280;20501;45.956;13.632;2022-12-18T02:20:58;101865.16;;;9.31;55.80
34237;BME280;20501;45.956;13.632;2022-12-18T02:26:23;101861.72;;;8.42;58.70
34237;BME280;20501;45.956;13.632;2022-12-18T02:29:01;101857.88;;;9.18;55.30
34237;BME280;20501;45.956;13.632;2022-12-18T02:31:33;101861.25;;;9.07;56.61
34237;BME280;20501;45.956;13.632;2022-12-18T02:34:03;101864.00;;;10.02;54.67
34237;BME280;20501;45.956;13.632;2022-12-18T02:36:31;101861.25;;;7.11;53.97
34237;BME280;20501;45.956;13.632;2022-12-18T02:38:58;101875.00;;;8.45;53.52
34237;BME280;20501;45.956;13.632;2022-12-18T02:41:25;101880.81;;;8.82;57.27
34237;BME280;20501;45.956;13.632;2022-12-18T02:43:57;101877.44;;;8.78;55.64
34237;BME280;20501;45.956;13.632;2022-12-18T02:46:27;101886.63;;;8.31;57.26
34237;BME280;20501;45.956;13.632;2022-12-18T02:49:01;101886.41;;;9.50;53.30
34237;BME280;20501;45.956;13.632;2022-12-18T02:51:49;101878.59;;;9.45;55.62
34237;BME280;20501;45.956;13.632;2022-12-18T02:54:49;101883.75;;;9.63;54.06
34237;BME280;20501;45.956;13.632;2022-12-18T02:57:43;101895.13;;;8.97;56.53
34237;BME280;20501;45.956;13.632;2022-12-18T03:00:17;101898.25;;;8.91;51.29
34237;BME280;20501;45.956;13.632;2022-12-18T03:03:05;101896.41;;;6.91;55.11
34237;BME280;20501;45.956;13.632;2022-12-18T03:05:39;101893.41;;;7.77;59.21
34237;BME280;20501;45.956;13.632;2022-12-18T03:08:20;101897.16;;;9.08;55.63
34237;BME280;20501;45.956;13.632;2022-12-18T03:10:55;101893.25;;;7.32;56.35
34237;BME280;20501;45.956;13.632;2022-12-18T03:13:54;101884.69;;;8.18;52.38
34237;BME280;20501;45.956;13.632;2022-12-18T03:16:28;101898.03;;;7.27;53.20
34237;BME280;20501;45.956;13.632;2022-12-18T03:19:01;101890.84;;;7.90;51.77
34237;BME280;20501;45.956;13.632;2022-12-18T03:21:33;101896.19;;;7.59;59.16
34237;BME280;20501;45.956;13.632;2022-12-18T03:24:06;101905.03;;;7.46;58.31
34237;BME280;20501;45.956;13.632;2022-12-18T03:26:34;101902.88;;;7.36;53.63
34237;BME280;20501;45.956;13.632;2022-12-18T03:29:08;101904.56;;;9.19;54.64
34237;BME280;20501;45.956;13.632;2022-12-18T03:31:37;101906.88;;;9.10;52.11
34237;BME280;20501;45.956;13.632;2022-12-18T03:34:09;101915.19;;;8.78;55.32
34237;BME280;20501;45.956;13.632;2022-12-18T03:36:38;101908.22;;;9.59;54.64
34237;BME280;20501;45.956;13.632;2022-12-18T03:39:03;101921.13;;;8.69;51.36
34237;BME280;20501;45.956;13.632;2022-12-18T03:45:09;101921.13;;;5.57;57.75
34237;BME280;20501;45.956;13.632;2022-12-18T03:50:16;101926.66;;;7.28;51.25
34237;BME280;20501;45.956;13.632;2022-12-18T03:52:54;101934.63;;;8.98;50.86
34237;BME280;20501;45.956;13.632;2022-12-18T03:55:23;101934.78;;;9.38;55.07
34237;BME280;20501;45.956;13.632;2022-12-18T03:57:52;101930.44;;;9.36;55.35
34237;BME280;20501;45.956;13.632;2022-12-18T04:00:19;101934.25;;;9.04;52.15
34237;BME280;20501;45.956;13.632;2022-12-18T04:02:47;101936.69;;;8.19;55.46
34237;BME280;20501;45.956;13.632;2022-12-18T04:05:15;101943.47;;;8.86;57.21
34237;BME280;20501;45.956;13.632;2022-12-18T04:07:41;101948.16;;;8.06;54.97
34237;BME280;20501;45.956;13.632;2022-12-18T04:10:09;101946.72;;;9.20;55.36
34237;BME280;20501;45.956;13.632;2022-12-18T04:12:37;101948.16;;;9.40;47.70
34237;BME280;20501;45.956;13.632;2022-12-18T04:15:03;101955.13;;;9.15;54.37
34237;BME280;20501;45.956;13.632;2022-12-18T04:17:28;101967.59;;;9.87;50.48
34237;BME280;20501;45.956;13.632;2022-12-18T04:19:54;101956.81;;;9.45;49.98
34237;BME280;20501;45.956;13.632;2022-12-18T04:22:19;101961.03;;;5.63;53.56
34237;BME280;20501;45.956;13.632;2022-12-18T04:24:45;101976.06;;;7.41;54.42
34237;BME280;20501;45.956;13.632;2022-12-18T04:27:10;101979.06;;;8.62;56.37
34237;BME280;20501;45.956;13.632;2022-12-18T04:29:35;101979.16;;;8.75;54.14
34237;BME280;20501;45.956;13.632;2022-12-18T04:32:01;101981.81;;;9.05;55.19
34237;BME280;20501;45.956;13.632;2022-12-18T04:34:26;101973.41;;;8.20;54.84
34237;BME280;20501;45.956;13.632;2022-12-18T04:36:52;101973.72;;;6.15;61.16
34237;BME280;20501;45.956;13.632;2022-12-18T04:39:17;101991.88;;;7.64;60.56
34237;BME280;20501;45.956;13.632;2022-12-18T04:41:43;101985.28;;;8.01;51.21
34237;BME280;20501;45.956;13.632;2022-12-18T04:44:08;101989.59;;;8.95;51.86
34237;BME280;20501;45.956;13.632;2022-12-18T04:46:34;101989.22;;;10.27;53.03
34237;BME280;20501;45.956;13.632;2022-12-18T04:48:59;102002.56;;;8.89;56.75
34237;BME280;20501;45.956;13.632;2022-12-18T04:51:25;101998.34;;;6.06;56.50
34237;BME280;20501;45.956;13.632;2022-12-18T04:53:50;101999.59;;;5.80;57.32
34237;BME280;20501;45.956;13.632;2022-12-18T04:56:16;102004.53;;;6.26;64.18
34237;BME280;20501;45.956;13.632;2022-12-18T04:58:43;102009.22;;;6.03;57.79
34237;BME280;20501;45.956;13.632;2022-12-18T05:01:09;102013.47;;;6.61;57.06
34237;BME280;20501;45.956;13.632;2022-12-18T05:03:35;102018.97;;;8.39;56.31
34237;BME280;20501;45.956;13.632;2022-12-18T05:06:01;102031.63;;;7.74;59.12
34237;BME280;20501;45.956;13.632;2022-12-18T05:08:27;102027.72;;;8.89;57.25
34237;BME280;20501;45.956;13.632;2022-12-18T05:11:00;102029.94;;;7.40;57.36
34237;BME280;20501;45.956;13.632;2022-12-18T05:13:26;102027.16;;;8.98;52.05
34237;BME280;20501;45.956;13.632;2022-12-18T05:15:52;102033.09;;;9.04;56.33
34237;BME280;20501;45.956;13.632;2022-12-18T05:18:18;102042.69;;;9.38;51.76
34237;BME280;20501;45.956;13.632;2022-12-18T05:20:43;102038.66;;;8.25;53.97
34237;BME280;20501;45.956;13.632;2022-12-18T05:23:09;102044.31;;;9.55;54.56
34237;BME280;20501;45.956;13.632;2022-12-18T05:25:34;102037.88;;;7.25;53.49
34237;BME280;20501;45.956;13.632;2022-12-18T05:27:59;102044.16;;;5.82;58.92
34237;BME280;20501;45.956;13.632;2022-12-18T05:30:25;102045.69;;;8.74;57.16
34237;BME280;20501;45.956;13.632;2022-12-18T05:32:50;102049.28;;;8.89;57.09
34237;BME280;20501;45.956;13.632;2022-12-18T05:35:16;102053.53;;;10.07;53.16
34237;BME280;20501;45.956;13.632;2022-12-18T05:37:41;102052.09;;;9.17;55.14
34237;BME280;20501;45.956;13.632;2022-12-18T05:40:07;102059.91;;;9.50;54.84
34237;BME280;20501;45.956;13.632;2022-12-18T05:42:33;102061.09;;;10.30;53.07
34237;BME280;20501;45.956;13.632;2022-12-18T05:44:58;102053.91;;;7.11;54.93
34237;BME280;20501;45.956;13.632;2022-12-18T05:47:23;102060.50;;;8.19;59.33
34237;BME280;20501;45.956;13.632;2022-12-18T05:49:49;102063.41;;;7.34;55.21
34237;BME280;20501;45.956;13.632;2022-12-18T05:52:14;102060.22;;;5.25;65.63
34237;BME280;20501;45.956;13.632;2022-12-18T05:54:40;102060.84;;;8.45;58.33
34237;BME280;20501;45.956;13.632;2022-12-18T05:57:05;102061.91;;;8.73;57.24
34237;BME280;20501;45.956;13.632;2022-12-18T05:59:31;102056.03;;;9.11;55.85
34237;BME280;20501;45.956;13.632;2022-12-18T06:01:56;102063.31;;;7.36;55.15
34237;BME280;20501;45.956;13.632;2022-12-18T06:04:21;102067.28;;;7.94;59.59
34237;BME280;20501;45.956;13.632;2022-12-18T06:06:47;102075.50;;;6.74;62.43
34237;BME280;20501;45.956;13.632;2022-12-18T06:09:12;102072.66;;;8.10;57.83
34237;BME280;20501;45.956;13.632;2022-12-18T06:11:38;102068.00;;;8.76;53.53
34237;BME280;20501;45.956;13.632;2022-12-18T06:14:05;102076.22;;;8.89;56.03
34237;BME280;20501;45.956;13.632;2022-12-18T06:16:31;102071.31;;;9.97;51.78
34237;BME280;20501;45.956;13.632;2022-12-18T06:18:59;102070.03;;;9.18;55.70
34237;BME280;20501;45.956;13.632;2022-12-18T06:21:26;102070.19;;;10.29;52.98
34237;BME280;20501;45.956;13.632;2022-12-18T06:23:52;102089.66;;;5.46;56.90
34237;BME280;20501;45.956;13.632;2022-12-18T06:26:18;102101.25;;;5.65;60.17
34237;BME280;20501;45.956;13.632;2022-12-18T06:28:43;102103.06;;;6.95;61.38
34237;BME280;20501;45.956;13.632;2022-12-18T06:31:09;102090.88;;;6.53;57.66
34237;BME280;20501;45.956;13.632;2022-12-18T06:33:35;102099.91;;;5.76;60.63
34237;BME280;20501;45.956;13.632;2022-12-18T06:36:06;102092.63;;;6.89;61.76
34237;BME280;20501;45.956;13.632;2022-12-18T06:38:33;102094.56;;;8.36;56.93
34237;BME280;20501;45.956;13.632;2022-12-18T06:40:59;102089.34;;;9.97;53.93
34237;BME280;20501;45.956;13.632;2022-12-18T06:43:25;102100.94;;;10.41;52.31
34237;BME280;20501;45.956;13.632;2022-12-18T06:45:50;102098.06;;;9.87;48.70
34237;BME280;20501;45.956;13.632;2022-12-18T06:48:19;102096.31;;;8.21;55.36
34237;BME280;20501;45.956;13.632;2022-12-18T06:50:44;102095.91;;;8.43;56.13
34237;BME280;20501;45.956;13.632;2022-12-18T06:53:10;102099.78;;;7.24;59.31
34237;BME280;20501;45.956;13.632;2022-12-18T06:55:36;102116.25;;;9.40;55.84
34237;BME280;20501;45.956;13.632;2022-12-18T06:58:01;102116.47;;;9.81;50.45
34237;BME280;20501;45.956;13.632;2022-12-18T07:00:26;102123.56;;;9.96;53.75
34237;BME280;20501;45.956;13.632;2022-12-18T07:02:52;102122.34;;;9.73;54.24
34237;BME280;20501;45.956;13.632;2022-12-18T07:05:17;102128.06;;;10.25;52.71
34237;BME280;20501;45.956;13.632;2022-12-18T07:07:43;102131.00;;;9.78;54.31
34237;BME280;20501;45.956;13.632;2022-12-18T07:10:09;102130.44;;;9.73;50.15
34237;BME280;20501;45.956;13.632;2022-12-18T07:12:34;102131.03;;;6.55;60.32
34237;BME280;20501;45.956;13.632;2022-12-18T07:15:00;102125.69;;;9.33;55.93
34237;BME280;20501;45.956;13.632;2022-12-18T07:17:25;102129.88;;;9.08;55.59
34237;BME280;20501;45.956;13.632;2022-12-18T07:19:51;102144.16;;;10.26;52.71
34237;BME280;20501;45.956;13.632;2022-12-18T07:22:16;102142.84;;;8.39;55.97
34237;BME280;20501;45.956;13.632;2022-12-18T07:24:42;102146.03;;;7.31;55.28
34237;BME280;20501;45.956;13.632;2022-12-18T07:27:07;102154.13;;;7.64;58.84
34237;BME280;20501;45.956;13.632;2022-12-18T07:29:32;102161.69;;;9.18;54.98
34237;BME280;20501;45.956;13.632;2022-12-18T07:31:58;102165.72;;;8.80;52.95
34237;BME280;20501;45.956;13.632;2022-12-18T07:34:23;102165.63;;;10.00;54.02
34237;BME280;20501;45.956;13.632;2022-12-18T07:36:49;102169.41;;;7.64;54.74
34237;BME280;20501;45.956;13.632;2022-12-18T07:39:15;102177.88;;;9.32;55.73
34237;BME280;20501;45.956;13.632;2022-12-18T07:41:41;102175.00;;;8.74;55.79
34237;BME280;20501;45.956;13.632;2022-12-18T07:44:29;102175.06;;;8.25;56.66
34237;BME280;20501;45.956;13.632;2022-12-18T07:46:54;102180.25;;;9.96;54.36
34237;BME280;20501;45.956;13.632;2022-12-18T07:49:19;102182.03;;;10.81;51.53
34237;BME280;20501;45.956;13.632;2022-12-18T07:51:45;102176.09;;;10.48;51.78
34237;BME280;20501;45.956;13.632;2022-12-18T07:54:14;102176.97;;;9.62;52.63
34237;BME280;20501;45.956;13.632;2022-12-18T07:56:39;102177.66;;;7.08;59.05
34237;BME280;20501;45.956;13.632;2022-12-18T07:59:05;102186.47;;;4.74;61.15
34237;BME280;20501;45.956;13.632;2022-12-18T08:01:30;102182.56;;;7.52;62.32
34237;BME280;20501;45.956;13.632;2022-12-18T08:03:57;102187.06;;;12.18;49.16
34237;BME280;20501;45.956;13.632;2022-12-18T08:06:22;102192.84;;;15.69;40.46
34237;BME280;20501;45.956;13.632;2022-12-18T08:08:48;102199.91;;;13.73;41.99
34237;BME280;20501;45.956;13.632;2022-12-18T08:11:14;102204.34;;;13.03;40.11
34237;BME280;20501;45.956;13.632;2022-12-18T08:13:39;102206.41;;;13.48;40.87
34237;BME280;20501;45.956;13.632;2022-12-18T08:16:06;102214.47;;;16.13;37.95
34237;BME280;20501;45.956;13.632;2022-12-18T08:18:33;102217.63;;;15.66;36.73
34237;BME280;20501;45.956;13.632;2022-12-18T08:21:08;102224.00;;;14.46;37.66
34237;BME280;20501;45.956;13.632;2022-12-18T08:23:34;102229.69;;;11.24;43.50
34237;BME280;20501;45.956;13.632;2022-12-18T08:25:59;102226.13;;;13.25;41.31
34237;BME280;20501;45.956;13.632;2022-12-18T08:28:25;102209.00;;;11.23;47.79
34237;BME280;20501;45.956;13.632;2022-12-18T08:30:53;102213.06;;;9.45;49.57
34237;BME280;20501;45.956;13.632;2022-12-18T08:33:18;102221.03;;;9.18;53.98
34237;BME280;20501;45.956;13.632;2022-12-18T08:35:44;102237.09;;;10.38;51.36
34237;BME280;20501;45.956;13.632;2022-12-18T08:38:09;102229.84;;;10.24;51.83
34237;BME280;20501;45.956;13.632;2022-12-18T08:40:35;102226.97;;;10.83;50.47
34237;BME280;20501;45.956;13.632;2022-12-18T08:43:00;102233.97;;;11.13;50.41
34237;BME280;20501;45.956;13.632;2022-12-18T08:45:44;102238.56;;;10.71;50.25
34237;BME280;20501;45.956;13.632;2022-12-18T08:48:10;102229.97;;;11.06;50.10
34237;BME280;20501;45.956;13.632;2022-12-18T08:50:35;102243.06;;;11.53;47.76
34237;BME280;20501;45.956;13.632;2022-12-18T08:53:01;102252.75;;;12.08;46.33
34237;BME280;20501;45.956;13.632;2022-12-18T08:55:27;102249.34;;;12.81;46.45
34237;BME280;20501;45.956;13.632;2022-12-18T08:57:52;102254.66;;;12.45;45.06
34237;BME280;20501;45.956;13.632;2022-12-18T09:00:18;102260.00;;;10.74;45.32
34237;BME280;20501;45.956;13.632;2022-12-18T09:02:43;102257.06;;;9.31;48.43
34237;BME280;20501;45.956;13.632;2022-12-18T09:05:09;102266.84;;;10.07;48.06
34237;BME280;20501;45.956;13.632;2022-12-18T09:07:35;102274.38;;;10.60;49.14
34237;BME280;20501;45.956;13.632;2022-12-18T09:10:00;102275.19;;;10.48;44.45
34237;BME280;20501;45.956;13.632;2022-12-18T09:12:26;102277.41;;;11.65;48.37
34237;BME280;20501;45.956;13.632;2022-12-18T09:14:51;102278.72;;;12.50;46.59
34237;BME280;20501;45.956;13.632;2022-12-18T09:17:16;102272.34;;;11.86;43.27
34237;BME280;20501;45.956;13.632;2022-12-18T09:19:42;102279.78;;;12.73;46.38
34237;BME280;20501;45.956;13.632;2022-12-18T09:22:08;102281.19;;;12.66;45.61
34237;BME280;20501;45.956;13.632;2022-12-18T09:24:34;102284.16;;;11.85;48.67
34237;BME280;20501;45.956;13.632;2022-12-18T09:27:00;102291.31;;;11.46;44.96
34237;BME280;20501;45.956;13.632;2022-12-18T09:29:25;102291.53;;;10.88;45.33
34237;BME280;20501;45.956;13.632;2022-12-18T09:31:51;102296.84;;;10.90;44.36
34237;BME280;20501;45.956;13.632;2022-12-18T09:34:16;102298.03;;;10.42;45.25
34237;BME280;20501;45.956;13.632;2022-12-18T09:36:42;102292.69;;;9.97;49.92
34237;BME280;20501;45.956;13.632;2022-12-18T09:39:08;102295.25;;;11.00;43.97
34237;BME280;20501;45.956;13.632;2022-12-18T09:49:26;102296.75;;;12.12;47.52
34237;BME280;20501;45.956;13.632;2022-12-18T09:52:21;102298.13;;;11.39;45.95
34237;BME280;20501;45.956;13.632;2022-12-18T09:55:22;102293.63;;;11.52;44.76
34237;BME280;20501;45.956;13.632;2022-12-18T09:57:53;102293.81;;;11.49;48.63
34237;BME280;20501;45.956;13.632;2022-12-18T10:00:23;102287.06;;;10.60;47.72
34237;BME280;20501;45.956;13.632;2022-12-18T10:02:51;102284.53;;;10.57;45.93
34237;BME280;20501;45.956;13.632;2022-12-18T10:05:33;102284.06;;;10.50;46.47
34237;BME280;20501;45.956;13.632;2022-12-18T10:10:48;102273.78;;;12.05;47.40
34237;BME280;20501;45.956;13.632;2022-12-18T10:19:33;102282.97;;;11.09;45.92
34237;BME280;20501;45.956;13.632;2022-12-18T10:21:40;102285.72;;;10.94;44.52
34237;BME280;20501;45.956;13.632;2022-12-18T10:27:09;102290.78;;;12.20;47.63
34237;BME280;20501;45.956;13.632;2022-12-18T10:29:36;102290.75;;;11.01;42.43
34237;BME280;20501;45.956;13.632;2022-12-18T10:32:03;102281.28;;;11.21;45.57
34237;BME280;20501;45.956;13.632;2022-12-18T10:34:28;102280.69;;;11.83;47.92
34237;BME280;20501;45.956;13.632;2022-12-18T10:36:54;102279.88;;;9.09;43.98
34237;BME280;20501;45.956;13.632;2022-12-18T10:39:24;102274.44;;;8.63;47.69
34237;BME280;20501;45.956;13.632;2022-12-18T10:42:09;102266.56;;;9.83;50.91
34237;BME280;20501;45.956;13.632;2022-12-18T10:44:35;102269.66;;;10.06;43.57
34237;BME280;20501;45.956;13.632;2022-12-18T10:47:06;102267.41;;;11.53;47.68
34237;BME280;20501;45.956;13.632;2022-12-18T10:49:36;102264.13;;;12.27;46.21
34237;BME280;20501;45.956;13.632;2022-12-18T10:54:37;102254.44;;;12.48;45.55
34237;BME280;20501;45.956;13.632;2022-12-18T10:57:17;102252.25;;;12.66;44.09
34237;BME280;20501;45.956;13.632;2022-12-18T10:59:54;102249.41;;;12.68;45.86
34237;BME280;20501;45.956;13.632;2022-12-18T11:02:37;102246.66;;;11.79;41.14
34237;BME280;20501;45.956;13.632;2022-12-18T11:07:49;102249.06;;;11.97;46.30
34237;BME280;20501;45.956;13.632;2022-12-18T11:10:19;102245.63;;;11.01;44.12
34237;BME280;20501;45.956;13.632;2022-12-18T11:12:45;102238.78;;;12.15;45.58
34237;BME280;20501;45.956;13.632;2022-12-18T11:15:23;102240.09;;;12.09;44.63
34237;BME280;20501;45.956;13.632;2022-12-18T11:17:51;102247.03;;;11.47;47.88
34237;BME280;20501;45.956;13.632;2022-12-18T11:20:31;102241.81;;;12.10;46.05
34237;BME280;20501;45.956;13.632;2022-12-18T11:22:59;102238.34;;;12.21;47.08
34237;BME280;20501;45.956;13.632;2022-12-18T11:25:26;102243.81;;;12.45;46.59
34237;BME280;20501;45.956;13.632;2022-12-18T11:27:56;102240.09;;;11.03;40.81
34237;BME280;20501;45.956;13.632;2022-12-18T11:30:36;102240.84;;;12.24;39.61
34237;BME280;20501;45.956;13.632;2022-12-18T11:33:19;102240.16;;;11.69;45.98
34237;BME280;20501;45.956;13.632;2022-12-18T11:35:51;102239.34;;;11.28;41.56
34237;BME280;20501;45.956;13.632;2022-12-18T11:40:56;102245.56;;;10.46;48.68
34237;BME280;20501;45.956;13.632;2022-12-18T11:43:35;102244.09;;;10.55;47.98
34237;BME280;20501;45.956;13.632;2022-12-18T11:46:26;102235.53;;;12.10;41.17
34237;BME280;20501;45.956;13.632;2022-12-18T11:49:34;102236.38;;;12.10;42.99
34237;BME280;20501;45.956;13.632;2022-12-18T11:52:19;102238.44;;;11.14;41.80
34237;BME280;20501;45.956;13.632;2022-12-18T11:54:46;102241.16;;;11.93;44.50
34237;BME280;20501;45.956;13.632;2022-12-18T12:11:48;102227.38;;;13.45;41.61
34237;BME280;20501;45.956;13.632;2022-12-18T12:19:48;102229.56;;;13.16;37.18
34237;BME280;20501;45.956;13.632;2022-12-18T12:22:25;102224.78;;;12.95;38.02
34237;BME280;20501;45.956;13.632;2022-12-18T12:25:30;102214.97;;;13.06;37.71
34237;BME280;20501;45.956;13.632;2022-12-18T12:28:09;102210.88;;;12.51;39.15
34237;BME280;20501;45.956;13.632;2022-12-18T12:38:30;102220.38;;;10.31;45.08
34237;BME280;20501;45.956;13.632;2022-12-18T12:41:03;102225.78;;;10.17;42.49
34237;BME280;20501;45.956;13.632;2022-12-18T12:43:35;102233.69;;;9.32;43.45
34237;BME280;20501;45.956;13.632;2022-12-18T12:46:07;102226.53;;;9.31;43.55
34237;BME280;20501;45.956;13.632;2022-12-18T12:48:46;102231.81;;;9.18;43.80
34237;BME280;20501;45.956;13.632;2022-12-18T12:51:25;102233.78;;;9.14;43.88
34237;BME280;20501;45.956;13.632;2022-12-18T12:53:52;102239.94;;;9.91;48.19
34237;BME280;20501;45.956;13.632;2022-12-18T12:56:19;102243.22;;;9.82;43.00
34237;BME280;20501;45.956;13.632;2022-12-18T12:59:00;102246.72;;;9.39;44.19
34237;BME280;20501;45.956;13.632;2022-12-18T13:06:54;102248.13;;;9.75;43.59
34237;BME280;20501;45.956;13.632;2022-12-18T13:09:24;102257.72;;;10.25;48.14
34237;BME280;20501;45.956;13.632;2022-12-18T13:11:49;102252.94;;;9.85;44.67
34237;BME280;20501;45.956;13.632;2022-12-18T13:14:36;102253.41;;;9.32;44.12
34237;BME280;20501;45.956;13.632;2022-12-18T13:20:03;102253.19;;;9.21;47.62
34237;BME280;20501;45.956;13.632;2022-12-18T13:22:35;102257.22;;;9.44;46.51
34237;BME280;20501;45.956;13.632;2022-12-18T13:25:03;102265.25;;;10.48;49.29
34237;BME280;20501;45.956;13.632;2022-12-18T13:28:09;102264.44;;;10.03;42.81
34237;BME280;20501;45.956;13.632;2022-12-18T13:48:37;102276.94;;;8.98;49.77
34237;BME280;20501;45.956;13.632;2022-12-18T13:51:08;102272.94;;;9.52;48.40
34237;BME280;20501;45.956;13.632;2022-12-18T13:53:58;102270.69;;;9.13;45.79
34237;BME280;20501;45.956;13.632;2022-12-18T13:56:26;102277.00;;;9.28;50.33
34237;BME280;20501;45.956;13.632;2022-12-18T13:59:14;102268.53;;;8.39;44.80
34237;BME280;20501;45.956;13.632;2022-12-18T14:04:45;102262.88;;;9.09;45.71
34237;BME280;20501;45.956;13.632;2022-12-18T14:07:22;102258.53;;;9.06;47.15
34237;BME280;20501;45.956;13.632;2022-12-18T14:09:53;102258.78;;;8.20;47.48
34237;BME280;20501;45.956;13.632;2022-12-18T14:12:26;102252.19;;;8.75;51.21
34237;BME280;20501;45.956;13.632;2022-12-18T14:17:42;102253.25;;;9.35;45.30
34237;BME280;20501;45.956;13.632;2022-12-18T14:20:14;102256.66;;;10.56;48.19
34237;BME280;20501;45.956;13.632;2022-12-18T14:22:43;102252.97;;;9.40;48.63
34237;BME280;20501;45.956;13.632;2022-12-18T14:28:02;102255.22;;;8.53;50.00
34237;BME280;20501;45.956;13.632;2022-12-18T14:30:29;102264.88;;;8.89;50.87
34237;BME280;20501;45.956;13.632;2022-12-18T14:33:05;102259.47;;;9.66;47.54
34237;BME280;20501;45.956;13.632;2022-12-18T14:35:33;102266.66;;;9.96;49.07
34237;BME280;20501;45.956;13.632;2022-12-18T14:40:46;102278.84;;;10.32;49.31
34237;BME280;20501;45.956;13.632;2022-12-18T14:43:12;102277.88;;;10.62;48.66
34237;BME280;20501;45.956;13.632;2022-12-18T14:45:42;102275.09;;;10.49;45.81
34237;BME280;20501;45.956;13.632;2022-12-18T14:48:13;102269.19;;;10.28;49.25
34237;BME280;20501;45.956;13.632;2022-12-18T14:50:40;102277.31;;;10.57;48.13